Accueil
METAR-TAF:

METAR-TAF

Aéroports :

Vamdrup

Kolding, Danemark

latitude: 55-26N, longitude: 009-20E, altitude: 44 m

Observation

Le bulletin a été fait il y a 6 minutes, à 06:20 UTC
Vent 8 kt de est
Température 11°C
Humidité 58%
Pression 1019 hPa

METAR: EKVD 220620Z AUTO 10008KT //// ///////// 11/03 Q1019

Heure: 08:26 (06:26 UTC)

Prévision

Le bulletin a été fait il y a 21 heures et 34 minutes, à 08:52 UTC
Prévision valable du 21 à 09 UTC au 21 à 15 UTC
Vent 5 kt de sud
Visibilité 10 km ou plus
pas de nuages en-dessous de 1500 mètres et pas de cumulonimbus.

TAF: EKVD 210852Z 2109/2115 18005KT CAVOK

Observations et prévisions météorologiques de plus de 4000 aéroports (messages METAR et TAF).

Les stations disponibles sont représentées par des disques jaunes et rouges sur la carte.

Passer la souris dessus pour voir le nom de la station.

Cliquer dessus pour voir les observations et prévisions météorologiques.

Pour changer de carte: cliquez sur les boutons verts avec une croix noire pour zoomer, sur le bouton vert avec un tiret pour effectuer un zoom arrière, ou sur les flèches vertes pour les cartes adjacentes.


METAR-TAF: